createdAt,value
2023-07-26T00:00:03.961Z,4.05
2023-07-26T00:02:30.668Z,3.58
2023-07-26T00:04:57.375Z,3.67
2023-07-26T00:07:24.078Z,3.53
2023-07-26T00:09:50.740Z,4.00
2023-07-26T00:12:17.469Z,3.63
2023-07-26T00:14:44.178Z,4.00
2023-07-26T00:17:11.014Z,3.92
2023-07-26T00:19:37.709Z,3.33
2023-07-26T00:22:04.774Z,3.53
2023-07-26T00:24:31.551Z,4.68
2023-07-26T00:26:58.273Z,4.47
2023-07-26T00:29:24.980Z,3.63
2023-07-26T00:31:51.752Z,4.25
2023-07-26T00:34:18.443Z,3.88
2023-07-26T00:36:45.252Z,4.72
2023-07-26T00:39:12.434Z,4.00
2023-07-26T00:41:39.379Z,4.50
2023-07-26T00:44:06.266Z,4.25
2023-07-26T00:46:33.878Z,4.57
2023-07-26T00:49:01.059Z,3.90
2023-07-26T00:51:29.020Z,4.70
2023-07-26T00:53:55.922Z,4.55
2023-07-26T00:56:22.969Z,4.88
2023-07-26T00:58:50.032Z,4.20
2023-07-26T01:01:16.895Z,4.82
2023-07-26T01:03:43.669Z,4.65
2023-07-26T01:06:24.445Z,4.43
2023-07-26T01:09:25.551Z,4.50
2023-07-26T01:12:10.354Z,5.43
2023-07-26T01:14:37.027Z,4.82
2023-07-26T01:17:06.434Z,3.97
2023-07-26T01:19:33.518Z,4.68
2023-07-26T01:22:01.047Z,4.63
2023-07-26T01:24:27.792Z,4.18
2023-07-26T01:26:54.740Z,4.60
2023-07-26T01:29:22.316Z,4.00
2023-07-26T01:31:49.899Z,4.85
2023-07-26T01:34:16.760Z,4.55
2023-07-26T01:36:44.504Z,3.95
2023-07-26T01:39:11.825Z,4.25
2023-07-26T01:41:39.362Z,5.00
2023-07-26T01:44:06.191Z,4.53
2023-07-26T01:46:33.063Z,4.72
2023-07-26T01:48:59.827Z,3.55
2023-07-26T01:51:26.574Z,3.78
2023-07-26T01:53:53.287Z,4.60
2023-07-26T01:56:20.789Z,4.63
2023-07-26T01:58:47.462Z,4.35
2023-07-26T02:01:14.175Z,4.97
2023-07-26T02:03:40.870Z,4.88
2023-07-26T02:06:07.562Z,5.30
2023-07-26T02:08:34.312Z,5.10
2023-07-26T02:11:01.004Z,5.40
2023-07-26T02:13:28.197Z,4.93
2023-07-26T02:15:54.924Z,5.40
2023-07-26T02:18:22.999Z,5.28
2023-07-26T02:20:49.702Z,5.38
2023-07-26T02:23:16.400Z,5.25
2023-07-26T02:25:43.156Z,5.25
2023-07-26T02:28:09.839Z,6.25
2023-07-26T02:30:36.542Z,5.90
2023-07-26T02:33:03.262Z,6.13
2023-07-26T02:35:30.014Z,6.50
2023-07-26T02:37:56.701Z,5.45
2023-07-26T02:40:23.499Z,5.63
2023-07-26T02:42:50.322Z,6.18
2023-07-26T02:45:17.026Z,6.05
2023-07-26T02:47:43.778Z,6.43
2023-07-26T02:50:10.691Z,8.30
2023-07-26T02:52:37.435Z,6.75
2023-07-26T02:55:04.468Z,6.65
2023-07-26T02:57:31.252Z,7.55
2023-07-26T02:59:57.936Z,7.97
2023-07-26T03:02:24.738Z,8.02
2023-07-26T03:04:51.491Z,7.93
2023-07-26T03:07:18.193Z,7.32
2023-07-26T03:09:45.045Z,9.98
2023-07-26T03:12:11.790Z,8.18
2023-07-26T03:14:41.834Z,7.95
2023-07-26T03:17:22.172Z,8.75
2023-07-26T03:19:50.491Z,8.18
2023-07-26T03:22:17.754Z,8.35
2023-07-26T03:24:44.552Z,9.05
2023-07-26T03:27:11.399Z,8.77
2023-07-26T03:29:38.121Z,9.05
2023-07-26T03:32:05.122Z,8.93
2023-07-26T03:34:32.094Z,8.27
2023-07-26T03:36:58.973Z,8.95
2023-07-26T03:39:25.771Z,9.02
2023-07-26T03:41:52.460Z,8.75
2023-07-26T03:44:19.264Z,10.05
2023-07-26T03:46:45.975Z,9.45
2023-07-26T03:49:12.749Z,9.55
2023-07-26T03:51:39.430Z,9.65
2023-07-26T03:54:06.573Z,10.23
2023-07-26T03:56:33.502Z,9.98
2023-07-26T03:59:00.375Z,10.32
2023-07-26T04:01:27.263Z,9.73
2023-07-26T04:03:54.170Z,10.43
2023-07-26T04:06:21.075Z,10.75
2023-07-26T04:08:47.981Z,10.43
2023-07-26T04:11:14.821Z,9.80
2023-07-26T04:13:41.621Z,10.95
2023-07-26T04:16:19.484Z,10.27
2023-07-26T04:18:46.479Z,10.30
2023-07-26T04:21:18.366Z,10.25
2023-07-26T04:23:46.808Z,10.10
2023-07-26T04:26:13.695Z,9.88
2023-07-26T04:28:40.524Z,10.38
2023-07-26T04:31:07.325Z,10.25
2023-07-26T04:33:34.219Z,9.82
2023-07-26T04:36:01.063Z,10.52
2023-07-26T04:38:27.947Z,9.93
2023-07-26T04:40:54.647Z,11.48
2023-07-26T04:43:21.634Z,10.77
2023-07-26T04:45:52.402Z,11.05
2023-07-26T04:48:20.248Z,9.57
2023-07-26T04:50:48.658Z,11.85
2023-07-26T04:53:16.090Z,9.30
2023-07-26T04:55:52.725Z,10.27
2023-07-26T04:58:19.998Z,10.77
2023-07-26T05:00:47.140Z,10.65
2023-07-26T05:03:14.382Z,11.10
2023-07-26T05:05:41.414Z,11.10
2023-07-26T05:08:08.752Z,10.55
2023-07-26T05:10:36.774Z,11.18
2023-07-26T05:13:04.144Z,11.18
2023-07-26T05:15:31.141Z,11.52
2023-07-26T05:17:57.900Z,10.32
2023-07-26T05:20:24.685Z,10.35
2023-07-26T05:22:53.001Z,10.27
2023-07-26T05:25:20.521Z,10.85
2023-07-26T05:27:47.534Z,10.38
2023-07-26T05:30:19.120Z,11.05
2023-07-26T05:32:46.421Z,11.13
2023-07-26T05:35:13.462Z,9.70
2023-07-26T05:37:40.594Z,10.57
2023-07-26T05:40:08.024Z,10.10
2023-07-26T05:42:36.166Z,9.95
2023-07-26T05:45:05.583Z,9.18
2023-07-26T05:47:34.312Z,9.85
2023-07-26T05:50:01.597Z,10.52
2023-07-26T05:52:28.404Z,9.30
2023-07-26T05:54:55.055Z,10.10
2023-07-26T05:57:21.870Z,9.38
2023-07-26T05:59:48.548Z,10.07
2023-07-26T06:02:17.061Z,8.98
2023-07-26T06:04:44.265Z,9.63
2023-07-26T06:07:11.122Z,8.18
2023-07-26T06:09:38.174Z,9.40
2023-07-26T06:12:05.423Z,9.20
2023-07-26T06:14:32.504Z,7.90
2023-07-26T06:16:59.727Z,8.45
2023-07-26T06:19:28.385Z,7.68
2023-07-26T06:21:57.219Z,7.88
2023-07-26T06:24:30.813Z,7.43
2023-07-26T06:26:59.639Z,6.72
2023-07-26T06:29:26.683Z,6.60
2023-07-26T06:31:53.419Z,7.20
2023-07-26T06:34:20.186Z,7.10
2023-07-26T06:36:48.042Z,7.18
2023-07-26T06:39:15.101Z,7.55
2023-07-26T06:41:44.561Z,6.78
2023-07-26T06:44:11.320Z,6.47
2023-07-26T06:46:39.999Z,6.05
2023-07-26T06:49:06.761Z,6.20
2023-07-26T06:51:33.910Z,6.43
2023-07-26T06:54:00.874Z,6.63
2023-07-26T06:56:27.647Z,5.80
2023-07-26T06:58:55.011Z,5.55
2023-07-26T07:01:23.519Z,5.25
2023-07-26T07:03:58.986Z,6.15
2023-07-26T07:06:29.874Z,5.88
2023-07-26T07:08:59.229Z,6.60
2023-07-26T07:11:26.219Z,5.15
2023-07-26T07:13:54.580Z,5.80
2023-07-26T07:16:21.309Z,5.43
2023-07-26T07:18:51.880Z,5.15
2023-07-26T07:21:18.718Z,4.57
2023-07-26T07:23:45.890Z,5.10
2023-07-26T07:26:12.905Z,4.70
2023-07-26T07:28:39.579Z,4.63
2023-07-26T07:31:07.518Z,4.65
2023-07-26T07:33:34.230Z,4.55
2023-07-26T07:36:01.031Z,4.22
2023-07-26T07:38:27.864Z,4.32
2023-07-26T07:40:54.631Z,3.83
2023-07-26T07:43:21.978Z,3.95
2023-07-26T07:45:48.744Z,4.50
2023-07-26T07:48:15.998Z,3.75
2023-07-26T07:50:42.676Z,3.88
2023-07-26T07:53:09.480Z,3.60
2023-07-26T07:55:39.685Z,2.83
2023-07-26T07:58:06.961Z,3.20
2023-07-26T08:00:33.752Z,2.90
2023-07-26T08:03:00.519Z,2.97
2023-07-26T08:05:27.246Z,3.65
2023-07-26T08:07:55.172Z,3.45
2023-07-26T08:10:22.288Z,2.67
2023-07-26T08:12:50.903Z,3.35
2023-07-26T08:15:17.771Z,2.80
2023-07-26T08:17:44.660Z,2.95
2023-07-26T08:20:12.954Z,2.72
2023-07-26T08:22:41.083Z,2.40
2023-07-26T08:25:09.024Z,2.65
2023-07-26T08:27:35.824Z,2.45
2023-07-26T08:30:03.318Z,2.15
2023-07-26T08:32:30.276Z,2.67
2023-07-26T08:34:57.001Z,2.88
2023-07-26T08:37:25.037Z,2.55
2023-07-26T08:39:51.762Z,2.63
2023-07-26T08:42:18.598Z,2.30
2023-07-26T08:44:47.562Z,2.40
2023-07-26T08:47:17.263Z,2.22
2023-07-26T08:49:46.387Z,2.28
2023-07-26T08:52:15.014Z,2.58
2023-07-26T08:54:43.707Z,2.65
2023-07-26T08:57:12.002Z,2.25
2023-07-26T08:59:40.315Z,2.33
2023-07-26T09:02:10.859Z,2.40
2023-07-26T09:07:05.560Z,2.00
2023-07-26T09:09:33.953Z,2.08
2023-07-26T09:12:01.477Z,2.38
2023-07-26T09:14:29.773Z,2.22
2023-07-26T09:16:57.668Z,2.80
2023-07-26T09:19:35.020Z,2.35
2023-07-26T09:22:03.540Z,2.00
2023-07-26T09:24:38.236Z,2.25
2023-07-26T09:27:10.318Z,2.45
2023-07-26T09:29:41.839Z,2.20
2023-07-26T09:32:10.733Z,2.35
2023-07-26T09:34:40.795Z,2.40
2023-07-26T09:37:07.870Z,2.20
2023-07-26T09:39:45.456Z,2.10
2023-07-26T09:42:12.142Z,2.08
2023-07-26T09:44:38.878Z,2.17
2023-07-26T09:47:08.223Z,2.50
2023-07-26T09:49:44.601Z,2.03
2023-07-26T09:52:14.366Z,2.58
2023-07-26T09:54:42.035Z,1.77
2023-07-26T09:57:13.413Z,1.75
2023-07-26T09:59:41.727Z,1.63
2023-07-26T10:02:12.305Z,2.05
2023-07-26T10:05:01.484Z,1.70
2023-07-26T10:07:33.362Z,1.73
2023-07-26T10:10:03.838Z,2.05
2023-07-26T10:12:32.169Z,1.83
2023-07-26T10:14:59.786Z,1.42
2023-07-26T10:17:27.634Z,1.50
2023-07-26T10:19:56.161Z,1.50
2023-07-26T10:22:24.636Z,1.80
2023-07-26T10:24:51.389Z,1.70
2023-07-26T10:27:18.175Z,1.77
2023-07-26T10:29:47.320Z,1.40
2023-07-26T10:32:15.877Z,1.60
2023-07-26T10:34:43.326Z,1.63
2023-07-26T10:37:20.882Z,1.48
2023-07-26T10:39:50.147Z,1.63
2023-07-26T10:42:24.135Z,1.77
2023-07-26T10:44:51.379Z,1.67
2023-07-26T10:47:20.121Z,1.73
2023-07-26T10:49:49.130Z,1.55
2023-07-26T10:52:16.488Z,1.67
2023-07-26T10:54:49.913Z,1.52
2023-07-26T10:57:33.122Z,2.20
2023-07-26T11:00:07.838Z,2.00
2023-07-26T11:02:46.057Z,2.22
2023-07-26T11:05:23.740Z,1.90
2023-07-26T11:07:59.639Z,2.50
2023-07-26T11:10:49.607Z,1.77
2023-07-26T11:13:21.355Z,1.48
2023-07-26T11:16:15.601Z,1.40
2023-07-26T11:18:41.715Z,1.52
2023-07-26T11:21:14.129Z,2.08
2023-07-26T11:23:40.882Z,1.77
2023-07-26T11:26:09.440Z,2.40
2023-07-26T11:28:36.282Z,2.83
2023-07-26T11:31:05.226Z,2.85
2023-07-26T11:33:35.040Z,3.30
2023-07-26T11:36:05.795Z,3.72
2023-07-26T11:38:32.535Z,3.85
2023-07-26T11:41:01.199Z,3.78
2023-07-26T11:43:30.186Z,4.25
2023-07-26T11:45:58.495Z,3.83
2023-07-26T11:48:30.961Z,4.18
2023-07-26T11:51:01.243Z,4.15
2023-07-26T11:53:45.132Z,3.75
2023-07-26T11:56:13.042Z,3.50
2023-07-26T11:58:41.778Z,2.80
2023-07-26T12:01:08.825Z,2.95
2023-07-26T12:03:37.597Z,3.00
2023-07-26T12:06:09.121Z,2.78
2023-07-26T12:08:38.305Z,2.80
2023-07-26T12:11:06.455Z,2.22
2023-07-26T12:13:34.838Z,2.08
2023-07-26T12:16:04.196Z,1.83
2023-07-26T12:18:32.271Z,1.45
2023-07-26T12:21:10.064Z,1.73
2023-07-26T12:24:03.404Z,1.30
2023-07-26T12:26:34.386Z,1.15
2023-07-26T12:29:04.189Z,1.25
2023-07-26T12:31:35.119Z,1.63
2023-07-26T12:34:10.682Z,1.17
2023-07-26T12:36:43.218Z,1.52
2023-07-26T12:39:11.234Z,1.30
2023-07-26T12:41:43.290Z,1.45
2023-07-26T12:44:12.192Z,1.60
2023-07-26T12:47:14.383Z,1.75
2023-07-26T12:49:28.312Z,1.65
2023-07-26T12:51:55.587Z,1.60
2023-07-26T12:54:24.928Z,1.45
2023-07-26T12:56:54.613Z,1.10
2023-07-26T12:59:21.362Z,1.27
2023-07-26T13:01:48.221Z,1.13
2023-07-26T13:04:17.224Z,0.90
2023-07-26T13:06:44.030Z,1.38
2023-07-26T13:09:10.777Z,0.90
2023-07-26T13:11:37.607Z,0.80
2023-07-26T13:14:04.350Z,0.90
2023-07-26T13:16:33.395Z,0.98
2023-07-26T13:19:06.661Z,0.68
2023-07-26T13:21:33.828Z,0.85
2023-07-26T13:24:00.860Z,1.08
2023-07-26T13:26:30.023Z,1.00
2023-07-26T13:28:56.898Z,0.90
2023-07-26T13:31:23.611Z,0.90
2023-07-26T13:33:52.008Z,0.93
2023-07-26T13:36:24.454Z,1.10
2023-07-26T13:38:51.394Z,1.00
2023-07-26T13:41:18.330Z,0.90
2023-07-26T13:43:45.091Z,1.00
2023-07-26T13:48:41.517Z,1.00
2023-07-26T13:51:10.172Z,0.98
2023-07-26T13:53:37.205Z,0.85
2023-07-26T13:56:03.967Z,1.00
2023-07-26T13:58:31.074Z,1.00
2023-07-26T14:00:57.883Z,0.95
2023-07-26T14:03:26.319Z,1.00
2023-07-26T14:05:53.065Z,0.90
2023-07-26T14:08:19.762Z,1.00
2023-07-26T14:10:46.425Z,1.10
2023-07-26T14:13:13.221Z,1.20
2023-07-26T14:15:39.931Z,1.27
2023-07-26T14:18:06.652Z,0.88
2023-07-26T14:20:34.402Z,0.70
2023-07-26T14:23:01.603Z,0.70
2023-07-26T14:25:28.399Z,0.90
2023-07-26T14:27:55.545Z,0.80
2023-07-26T14:30:22.230Z,0.88
2023-07-26T14:32:48.988Z,1.00
2023-07-26T14:35:15.965Z,0.90
2023-07-26T14:37:42.624Z,0.80
2023-07-26T14:40:09.926Z,0.90
2023-07-26T14:42:36.783Z,0.80
2023-07-26T14:45:03.649Z,0.88
2023-07-26T14:47:30.449Z,0.95
2023-07-26T14:50:04.106Z,0.98
2023-07-26T14:52:32.070Z,1.08
2023-07-26T14:54:58.948Z,1.00
2023-07-26T14:57:25.638Z,1.10
2023-07-26T14:59:52.382Z,1.00
2023-07-26T15:02:22.332Z,0.82
2023-07-26T15:04:49.170Z,0.90
2023-07-26T15:07:16.007Z,0.90
2023-07-26T15:09:43.035Z,0.90
2023-07-26T15:12:10.356Z,1.00
2023-07-26T15:14:37.265Z,0.88
2023-07-26T15:17:04.190Z,0.82
2023-07-26T15:19:30.988Z,0.80
2023-07-26T15:21:57.733Z,0.80
2023-07-26T15:24:25.636Z,0.93
2023-07-26T15:26:53.090Z,0.98
2023-07-26T15:29:19.823Z,1.10
2023-07-26T15:31:46.610Z,1.05
2023-07-26T15:34:13.312Z,0.93
2023-07-26T15:36:42.682Z,1.00
2023-07-26T15:39:10.159Z,1.00
2023-07-26T15:42:06.548Z,1.70
2023-07-26T15:47:14.479Z,0.93
2023-07-26T15:52:13.167Z,1.10
2023-07-26T15:54:40.464Z,1.10
2023-07-26T15:57:07.481Z,1.35
2023-07-26T15:59:35.740Z,1.27
2023-07-26T16:02:02.523Z,1.55
2023-07-26T16:04:29.469Z,1.35
2023-07-26T16:09:28.927Z,1.20
2023-07-26T16:21:54.795Z,1.65
2023-07-26T16:24:23.091Z,1.75
2023-07-26T16:26:49.813Z,1.70
2023-07-26T16:29:16.536Z,1.45
2023-07-26T16:31:43.381Z,1.85
2023-07-26T16:34:10.136Z,1.40
2023-07-26T16:36:36.907Z,1.27
2023-07-26T16:39:03.737Z,1.80
2023-07-26T16:41:30.958Z,1.60
2023-07-26T16:43:57.949Z,1.40
2023-07-26T16:46:27.366Z,1.45
2023-07-26T16:49:00.245Z,1.52
2023-07-26T16:51:27.193Z,1.52
2023-07-26T16:53:54.387Z,1.65
2023-07-26T16:56:21.054Z,1.50
2023-07-26T16:58:47.975Z,1.67
2023-07-26T17:01:14.805Z,1.45
2023-07-26T17:03:41.682Z,1.75
2023-07-26T17:06:08.842Z,1.35
2023-07-26T17:08:35.555Z,1.58
2023-07-26T17:11:02.290Z,1.58
2023-07-26T17:13:29.045Z,1.40
2023-07-26T17:15:55.757Z,1.48
2023-07-26T17:18:22.888Z,2.28
2023-07-26T17:20:49.560Z,1.65
2023-07-26T17:23:16.287Z,1.70
2023-07-26T17:25:42.978Z,2.00
2023-07-26T17:28:11.986Z,2.08
2023-07-26T17:30:38.658Z,3.15
2023-07-26T17:33:06.600Z,2.00
2023-07-26T17:35:33.392Z,1.40
2023-07-26T17:38:00.068Z,1.80
2023-07-26T17:40:30.939Z,1.65
2023-07-26T17:42:58.941Z,1.55
2023-07-26T17:45:25.731Z,1.92
2023-07-26T17:47:52.469Z,1.85
2023-07-26T17:50:19.202Z,1.70
2023-07-26T17:52:45.957Z,1.90
2023-07-26T17:55:15.404Z,6.95
2023-07-26T17:57:42.086Z,8.05
2023-07-26T18:00:11.926Z,17.17
2023-07-26T18:02:39.166Z,10.40
2023-07-26T18:05:07.129Z,18.90
2023-07-26T18:07:34.908Z,50.88
2023-07-26T18:10:02.027Z,9.75
2023-07-26T18:12:28.823Z,2.88
2023-07-26T18:14:55.917Z,2.38
2023-07-26T18:17:22.795Z,2.65
2023-07-26T18:19:49.474Z,2.30
2023-07-26T18:22:16.368Z,2.60
2023-07-26T18:24:43.157Z,4.43
2023-07-26T18:27:09.879Z,8.75
2023-07-26T18:29:36.622Z,3.08
2023-07-26T18:32:04.150Z,4.00
2023-07-26T18:34:32.114Z,4.00
2023-07-26T18:36:59.952Z,2.85
2023-07-26T18:39:27.105Z,3.53
2023-07-26T18:41:53.936Z,3.60
2023-07-26T18:44:20.641Z,4.40
2023-07-26T18:46:47.372Z,3.25
2023-07-26T18:49:14.089Z,3.40
2023-07-26T18:51:40.773Z,3.85
2023-07-26T18:54:07.614Z,3.72
2023-07-26T18:56:34.592Z,3.63
2023-07-26T18:59:01.624Z,3.55
2023-07-26T19:01:28.408Z,3.00
2023-07-26T19:03:55.092Z,3.13
2023-07-26T19:06:21.945Z,3.90
2023-07-26T19:08:48.651Z,3.85
2023-07-26T19:11:15.505Z,3.50
2023-07-26T19:13:45.928Z,3.47
2023-07-26T19:16:12.858Z,2.90
2023-07-26T19:18:39.662Z,2.88
2023-07-26T19:21:07.690Z,2.80
2023-07-26T19:23:34.867Z,2.85
2023-07-26T19:26:02.230Z,2.50
2023-07-26T19:28:29.426Z,2.85
2023-07-26T19:30:56.183Z,3.15
2023-07-26T19:33:23.051Z,2.50
2023-07-26T19:35:59.743Z,2.63
2023-07-26T19:38:27.470Z,3.00
2023-07-26T19:41:02.538Z,2.63
2023-07-26T19:43:29.795Z,2.67
2023-07-26T19:45:56.564Z,2.78
2023-07-26T19:48:23.287Z,2.20
2023-07-26T19:50:53.997Z,2.42
2023-07-26T19:53:21.495Z,2.85
2023-07-26T19:55:48.631Z,2.40
2023-07-26T19:58:18.125Z,2.53
2023-07-26T20:00:44.902Z,2.50
2023-07-26T20:03:11.590Z,2.80
2023-07-26T20:05:44.470Z,2.58
2023-07-26T20:08:12.411Z,1.85
2023-07-26T20:10:43.668Z,2.47
2023-07-26T20:13:12.038Z,2.00
2023-07-26T20:15:38.939Z,3.15
2023-07-26T20:18:05.841Z,2.00
2023-07-26T20:20:33.320Z,2.63
2023-07-26T20:23:00.059Z,2.20
2023-07-26T20:25:26.804Z,2.45
2023-07-26T20:27:53.503Z,2.55
2023-07-26T20:30:20.347Z,2.15
2023-07-26T20:32:47.074Z,2.35
2023-07-26T20:35:13.939Z,2.00
2023-07-26T20:37:40.645Z,2.42
2023-07-26T20:40:08.323Z,1.98
2023-07-26T20:42:35.371Z,2.38
2023-07-26T20:45:02.254Z,2.20
2023-07-26T20:47:29.078Z,2.13
2023-07-26T20:49:55.795Z,1.83
2023-07-26T20:52:22.722Z,2.30
2023-07-26T20:54:49.581Z,2.15
2023-07-26T20:57:16.360Z,1.50
2023-07-26T20:59:44.824Z,1.90
2023-07-26T21:02:11.579Z,1.65
2023-07-26T21:04:38.319Z,2.30
2023-07-26T21:07:06.286Z,1.92
2023-07-26T21:09:33.048Z,2.20
2023-07-26T21:11:59.756Z,2.90
2023-07-26T21:14:26.433Z,2.20
2023-07-26T21:16:53.512Z,2.05
2023-07-26T21:19:20.226Z,2.50
2023-07-26T21:21:46.933Z,2.45
2023-07-26T21:24:13.637Z,1.88
2023-07-26T21:26:40.313Z,2.05
2023-07-26T21:29:06.960Z,1.90
2023-07-26T21:31:33.754Z,2.10
2023-07-26T21:34:00.410Z,2.45
2023-07-26T21:36:27.186Z,2.13
2023-07-26T21:38:53.942Z,2.05
2023-07-26T21:41:20.714Z,2.70
2023-07-26T21:43:47.442Z,2.22
2023-07-26T21:46:14.209Z,2.08
2023-07-26T21:48:40.990Z,2.25
2023-07-26T21:51:07.723Z,2.10
2023-07-26T21:53:34.868Z,2.35
2023-07-26T21:56:01.632Z,1.75
2023-07-26T21:58:28.351Z,1.80
2023-07-26T22:00:55.935Z,2.22
2023-07-26T22:03:23.548Z,2.17
2023-07-26T22:05:53.762Z,2.40
2023-07-26T22:08:21.711Z,2.38
2023-07-26T22:10:48.528Z,2.05
2023-07-26T22:13:16.462Z,1.77
2023-07-26T22:15:45.814Z,1.90
2023-07-26T22:18:12.606Z,2.17
2023-07-26T22:20:52.227Z,2.10
2023-07-26T22:23:26.337Z,2.13
2023-07-26T22:26:03.187Z,1.90
2023-07-26T22:28:39.440Z,1.80
2023-07-26T22:31:06.222Z,1.95
2023-07-26T22:33:33.013Z,1.92
2023-07-26T22:36:03.561Z,2.20
2023-07-26T22:38:30.318Z,2.17
2023-07-26T22:40:57.019Z,1.70
2023-07-26T22:43:23.826Z,1.80
2023-07-26T22:45:50.652Z,1.80
2023-07-26T22:48:17.413Z,2.03
2023-07-26T22:50:44.078Z,1.85
2023-07-26T22:53:10.853Z,1.92
2023-07-26T22:55:37.555Z,1.73
2023-07-26T22:58:06.212Z,1.73
2023-07-26T23:00:33.604Z,1.63
2023-07-26T23:03:00.367Z,1.70
2023-07-26T23:05:27.234Z,1.80
2023-07-26T23:07:53.906Z,1.88
2023-07-26T23:10:21.514Z,1.83
2023-07-26T23:12:48.294Z,1.90
2023-07-26T23:15:15.138Z,1.70
2023-07-26T23:17:41.886Z,1.55
2023-07-26T23:20:09.070Z,2.05
2023-07-26T23:22:35.732Z,1.90
2023-07-26T23:25:03.061Z,1.52
2023-07-26T23:27:29.766Z,2.00
2023-07-26T23:29:57.432Z,1.55
2023-07-26T23:32:24.341Z,1.75
2023-07-26T23:34:51.111Z,2.00
2023-07-26T23:37:17.778Z,2.28
2023-07-26T23:39:44.720Z,1.90
2023-07-26T23:42:11.526Z,2.20
2023-07-26T23:44:38.219Z,1.95
2023-07-26T23:47:05.181Z,1.80
2023-07-26T23:49:32.083Z,2.55
2023-07-26T23:51:58.771Z,1.95
2023-07-26T23:54:26.214Z,1.90
2023-07-26T23:56:52.944Z,1.90
2023-07-26T23:59:19.721Z,2.17
